Time;durP1;ratioP1;P1;durP2;ratioP2;P2;SDS_P1;SDS_P2;PMS_P1;PMS_P2;Temp;Humidity;BMP_temperature;BMP_pressure;BME280_temperature;BME280_humidity;BME280_pressure;Samples;Min_cycle;Max_cycle;Signal;HPM_P1;HPM_P2
2023/09/03 00:02:25;;;;;;;5.00;4.60;;;15.70;99.90;;;15.53;100.00;98604.16;5016937;28;20431;-71
2023/09/03 00:04:52;;;;;;;5.03;4.33;;;15.70;99.90;;;15.57;100.00;98597.19;5022021;28;20787;-72
2023/09/03 00:07:20;;;;;;;10.67;4.53;;;15.70;99.90;;;15.57;100.00;98599.91;5068098;27;20445;-71
2023/09/03 00:09:47;;;;;;;4.97;4.60;;;15.80;99.90;;;15.52;100.00;98609.84;5039670;28;20453;-73
2023/09/03 00:12:14;;;;;;;6.57;4.47;;;15.80;99.90;;;15.59;100.00;98605.09;5017559;28;20963;-73
2023/09/03 00:14:42;;;;;;;4.97;4.47;;;15.80;99.90;;;15.25;100.00;98550.34;5019463;28;20477;-72
2023/09/03 00:17:13;;;;;;;5.33;4.90;;;15.80;99.90;;;15.61;100.00;98599.44;5007911;28;20468;-72
2023/09/03 00:19:41;;;;;;;5.20;4.80;;;15.80;99.90;;;15.57;100.00;98605.34;5012623;28;20443;-73
2023/09/03 00:22:08;;;;;;;4.70;4.30;;;15.70;99.90;;;15.49;100.00;98613.84;5037041;28;20633;-73
2023/09/03 00:24:35;;;;;;;6.20;4.57;;;15.60;99.90;;;15.48;100.00;98598.56;5013944;28;20496;-75
2023/09/03 00:27:03;;;;;;;5.70;4.20;;;15.60;99.90;;;15.47;100.00;98596.91;5003170;28;20447;-72
2023/09/03 00:29:32;;;;;;;5.13;4.63;;;15.60;99.90;;;15.42;100.00;98603.06;5023332;28;20456;-75
2023/09/03 00:32:00;;;;;;;4.97;4.57;;;15.60;99.90;;;15.42;100.00;98613.94;5025438;28;20469;-73
2023/09/03 00:34:28;;;;;;;5.27;4.80;;;15.60;99.90;;;15.41;100.00;98611.47;5018947;28;20822;-71
2023/09/03 00:36:55;;;;;;;5.07;4.53;;;15.60;99.90;;;15.35;100.00;98609.66;5038235;28;20498;-73
2023/09/03 00:39:22;;;;;;;5.37;4.33;;;15.60;99.90;;;15.28;100.00;98610.59;5021446;28;20507;-73
2023/09/03 00:41:49;;;;;;;6.30;4.70;;;15.50;99.90;;;15.26;100.00;98610.00;5021556;28;20471;-72
2023/09/03 00:44:17;;;;;;;5.13;4.43;;;15.50;99.90;;;15.26;100.00;98612.72;5042081;28;20447;-72
2023/09/03 00:46:45;;;;;;;5.33;4.93;;;15.50;99.90;;;15.28;100.00;98610.59;5017110;28;20494;-74
2023/09/03 00:49:20;;;;;;;8.53;4.73;;;15.50;99.90;;;15.23;100.00;98615.09;5024459;28;20949;-74
2023/09/03 00:51:48;;;;;;;5.73;4.93;;;15.50;99.90;;;15.14;100.00;98609.94;5014359;28;20555;-74
2023/09/03 00:54:15;;;;;;;5.00;4.60;;;15.40;99.90;;;15.07;100.00;98616.53;5041306;28;20847;-73
2023/09/03 00:56:43;;;;;;;5.23;4.47;;;15.30;99.90;;;15.11;100.00;98620.50;5023165;28;20462;-75
2023/09/03 00:59:11;;;;;;;4.43;4.10;;;15.30;99.90;;;15.15;100.00;98618.97;5026860;28;20529;-73
2023/09/03 01:01:38;;;;;;;5.47;4.60;;;15.30;99.90;;;15.04;100.00;98611.56;5012975;28;20939;-73
2023/09/03 01:04:06;;;;;;;4.93;4.53;;;15.30;99.90;;;15.01;100.00;98630.03;5023751;28;20449;-74
2023/09/03 01:06:34;;;;;;;4.97;4.50;;;15.20;99.90;;;14.96;100.00;98626.31;5015215;28;20460;-74
2023/09/03 01:09:02;;;;;;;5.03;4.53;;;15.10;99.90;;;14.99;100.00;98621.25;5018139;28;20442;-73
2023/09/03 01:11:39;;;;;;;4.77;4.37;;;15.10;99.90;;;15.04;100.00;98630.63;5022631;28;20474;-73
2023/09/03 01:14:20;;;;;;;4.53;4.13;;;15.10;99.90;;;14.88;100.00;98622.03;5010785;28;20943;-74
2023/09/03 01:16:55;;;;;;;5.37;4.87;;;15.10;99.90;;;15.04;100.00;98627.91;5025487;28;20482;-74
2023/09/03 01:19:45;;;;;;;5.07;4.60;;;15.10;99.90;;;15.04;100.00;98630.63;5020672;28;20986;-75
2023/09/03 01:22:29;;;;;;;6.20;4.70;;;15.10;99.90;;;14.97;100.00;98620.66;5016227;28;20446;-73
2023/09/03 01:25:14;;;;;;;4.87;4.47;;;15.10;99.90;;;14.96;100.00;98616.28;5027457;28;20454;-72
2023/09/03 01:27:51;;;;;;;5.03;3.90;;;15.00;99.90;;;14.97;100.00;98617.09;5051278;28;20466;-72
2023/09/03 01:30:20;;;;;;;4.67;4.27;;;15.00;99.90;;;14.98;100.00;98608.72;5022954;28;20449;-73
2023/09/03 01:32:50;;;;;;;4.53;4.07;;;15.00;99.90;;;14.94;100.00;98603.97;5038476;28;20470;-74
2023/09/03 01:35:19;;;;;;;5.60;4.53;;;15.10;99.90;;;15.06;100.00;98612.16;5013268;28;20451;-74
2023/09/03 01:37:46;;;;;;;4.40;4.00;;;15.10;99.90;;;15.07;100.00;98613.81;5009295;28;20504;-73
2023/09/03 01:40:14;;;;;;;4.83;4.33;;;15.10;99.90;;;15.06;100.00;98615.72;5005662;28;20456;-73
2023/09/03 01:42:42;;;;;;;6.47;4.87;;;15.10;99.90;;;14.99;100.00;98618.53;5055217;28;20552;-74
2023/09/03 01:45:10;;;;;;;5.37;4.87;;;15.10;99.90;;;14.92;100.00;98634.09;5029162;28;20462;-73
2023/09/03 01:47:49;;;;;;;4.00;3.70;;;15.00;99.90;;;14.85;100.00;98627.94;5017778;28;20898;-74
2023/09/03 01:50:25;;;;;;;6.47;4.10;;;15.00;99.90;;;14.82;100.00;98633.84;5014723;28;20461;-74
2023/09/03 01:53:02;;;;;;;4.70;4.30;;;14.90;99.90;;;14.69;100.00;98641.06;5029795;28;20609;-74
2023/09/03 01:55:35;;;;;;;6.43;4.70;;;14.80;99.90;;;14.68;100.00;98636.69;5004039;28;20456;-74
2023/09/03 01:58:07;;;;;;;5.43;4.00;;;14.80;99.90;;;14.63;100.00;98636.50;5005050;28;20513;-74
2023/09/03 02:00:35;;;;;;;4.67;4.27;;;14.70;99.90;;;14.17;100.00;98582.44;5002342;28;20458;-74
2023/09/03 02:03:05;;;;;;;4.47;4.07;;;14.60;99.90;;;14.45;100.00;98610.97;5007015;28;20547;-74
2023/09/03 02:05:32;;;;;;;4.70;4.30;;;14.70;99.90;;;14.62;100.00;98640.28;5021861;28;20451;-73
2023/09/03 02:07:59;;;;;;;5.13;4.63;;;14.70;99.90;;;14.63;100.00;98631.06;5010207;28;20483;-74
2023/09/03 02:10:26;;;;;;;4.93;4.53;;;14.80;99.90;;;14.55;100.00;98636.81;5006288;28;20524;-73
2023/09/03 02:12:54;;;;;;;5.03;4.53;;;14.70;99.90;;;14.53;100.00;98636.22;5006407;28;20479;-74
2023/09/03 02:15:21;;;;;;;8.30;4.43;;;14.60;99.90;;;14.51;100.00;98627.47;5008728;28;20502;-74
2023/09/03 02:17:48;;;;;;;5.40;4.70;;;14.70;99.90;;;14.48;100.00;98636.06;5022525;28;20495;-74
2023/09/03 02:20:18;;;;;;;7.20;4.80;;;14.60;99.90;;;14.45;100.00;98638.16;5010567;28;20481;-75
2023/09/03 02:22:45;;;;;;;6.37;4.87;;;14.60;99.90;;;14.41;100.00;98633.44;5009982;28;20541;-73
2023/09/03 02:25:12;;;;;;;5.83;4.07;;;14.50;99.90;;;14.45;100.00;98642.78;5021660;28;20459;-75
2023/09/03 02:27:39;;;;;;;4.43;4.10;;;14.50;99.90;;;14.47;100.00;98639.81;5007847;28;20531;-74
2023/09/03 02:30:08;;;;;;;10.63;4.30;;;14.50;99.90;;;14.50;100.00;98644.84;5002574;28;20482;-74
2023/09/03 02:32:35;;;;;;;5.40;4.83;;;14.60;99.90;;;14.50;100.00;98648.38;5009804;28;20979;-75
2023/09/03 02:35:02;;;;;;;3.80;3.50;;;14.60;99.90;;;14.40;100.00;98646.19;5032522;27;20503;-74
2023/09/03 02:37:31;;;;;;;4.93;4.43;;;14.60;99.90;;;14.33;100.00;98645.44;5013128;28;20517;-73
2023/09/03 02:39:58;;;;;;;5.37;4.43;;;14.50;99.90;;;14.30;100.00;98645.84;5001492;28;20444;-73
2023/09/03 02:42:25;;;;;;;4.50;4.10;;;14.50;99.90;;;14.37;100.00;98643.91;5004415;28;20470;-75
2023/09/03 02:44:52;;;;;;;5.57;5.00;;;14.50;99.90;;;14.47;100.00;98648.81;5007414;28;20551;-76
2023/09/03 02:47:20;;;;;;;4.87;4.40;;;14.50;99.90;;;14.39;100.00;98655.41;5008957;28;20458;-74
2023/09/03 02:49:47;;;;;;;4.80;4.30;;;14.50;99.90;;;14.28;100.00;98645.25;5026371;28;20467;-73
2023/09/03 02:52:14;;;;;;;5.20;4.70;;;14.40;99.90;;;14.26;100.00;98642.78;5006617;28;20521;-74
2023/09/03 02:54:43;;;;;;;5.23;4.73;;;14.30;99.90;;;14.36;100.00;98636.81;5002977;28;20455;-74
2023/09/03 02:57:10;;;;;;;5.43;4.90;;;14.40;99.90;;;14.27;100.00;98649.88;5035043;28;20483;-74
2023/09/03 02:59:38;;;;;;;5.30;4.80;;;14.40;99.90;;;14.27;100.00;98643.59;5013883;28;20828;-74
2023/09/03 03:02:05;;;;;;;4.60;4.30;;;14.40;99.90;;;14.26;100.00;98641.94;5012639;28;20466;-74
2023/09/03 03:04:32;;;;;;;5.60;4.70;;;14.40;99.90;;;14.32;100.00;98646.47;4999852;28;20466;-74
2023/09/03 03:06:59;;;;;;;4.83;4.43;;;14.40;99.90;;;14.41;100.00;98656.00;5001847;28;20468;-75
2023/09/03 03:09:26;;;;;;;4.60;4.20;;;14.50;99.90;;;14.33;100.00;98656.31;5001930;28;20943;-74
2023/09/03 03:11:55;;;;;;;5.20;4.50;;;14.50;99.90;;;14.33;100.00;98672.63;5001923;28;20481;-74
2023/09/03 03:14:22;;;;;;;4.80;4.40;;;14.40;99.90;;;14.24;100.00;98676.66;5002476;28;20463;-73
2023/09/03 03:16:50;;;;;;;4.80;4.40;;;14.40;99.90;;;14.15;100.00;98673.41;5001941;28;20461;-73
2023/09/03 03:19:17;;;;;;;7.17;4.10;;;14.20;99.90;;;14.10;100.00;98681.38;5014221;28;20460;-73
2023/09/03 03:21:44;;;;;;;6.80;4.77;;;14.20;99.90;;;14.20;100.00;98670.00;5008223;28;20510;-72
2023/09/03 03:24:13;;;;;;;4.43;4.03;;;14.30;99.90;;;14.34;100.00;98663.41;5001051;28;20536;-72
2023/09/03 03:26:40;;;;;;;5.70;4.73;;;14.40;99.90;;;14.29;100.00;98666.78;5005330;28;20463;-73
2023/09/03 03:29:09;;;;;;;4.30;3.90;;;14.40;99.90;;;14.28;100.00;98670.56;5014424;28;20455;-72
2023/09/03 03:31:36;;;;;;;5.80;5.30;;;14.40;99.90;;;14.22;100.00;98678.78;5016400;28;20470;-74
2023/09/03 03:34:03;;;;;;;4.90;4.50;;;14.40;99.90;;;14.15;100.00;98667.97;5008566;28;20455;-76
2023/09/03 03:36:30;;;;;;;5.10;4.60;;;14.40;99.90;;;14.10;100.00;98687.66;5013210;28;20469;-74
2023/09/03 03:38:57;;;;;;;4.90;4.50;;;14.30;99.90;;;14.08;100.00;98688.91;5010318;28;20465;-74
2023/09/03 03:41:25;;;;;;;6.87;4.83;;;14.20;99.90;;;14.05;100.00;98692.06;5003890;28;20479;-74
2023/09/03 03:43:52;;;;;;;5.13;3.90;;;14.20;99.90;;;14.05;100.00;98684.78;5008586;28;20934;-73
2023/09/03 03:46:22;;;;;;;5.60;5.10;;;14.20;99.90;;;13.75;100.00;98636.53;5030066;28;20506;-74
2023/09/03 03:48:50;;;;;;;5.57;4.77;;;14.20;99.90;;;13.74;100.00;98629.44;5024002;28;20555;-74
2023/09/03 03:51:17;;;;;;;5.00;4.60;;;14.20;99.90;;;14.15;100.00;98686.97;5034005;27;20876;-72
2023/09/03 03:53:45;;;;;;;9.20;4.90;;;14.30;99.90;;;14.17;100.00;98693.03;5011571;28;20638;-73
2023/09/03 03:56:13;;;;;;;5.03;4.53;;;14.30;99.90;;;14.23;100.00;98691.31;5026102;28;20454;-74
2023/09/03 03:58:42;;;;;;;4.53;4.13;;;14.30;99.90;;;14.24;100.00;98693.78;5019687;28;20520;-74
2023/09/03 04:01:13;;;;;;;5.40;4.50;;;14.30;99.90;;;14.19;100.00;98700.97;5021364;28;20457;-74
2023/09/03 04:03:42;;;;;;;5.37;4.60;;;14.30;99.90;;;14.26;100.00;98696.28;5031574;28;20446;-73
2023/09/03 04:06:09;;;;;;;5.77;4.80;;;14.30;99.90;;;14.27;100.00;98692.50;5030438;28;20445;-74
2023/09/03 04:08:38;;;;;;;4.10;3.80;;;14.40;99.90;;;14.30;100.00;98686.63;5019620;28;20439;-74
2023/09/03 04:11:08;;;;;;;6.10;4.20;;;14.50;99.90;;;14.28;100.00;98681.44;5017188;28;20549;-75
2023/09/03 04:13:37;;;;;;;5.60;4.20;;;14.50;99.90;;;14.28;100.00;98686.03;5019625;28;20493;-74
2023/09/03 04:16:09;;;;;;;5.90;4.43;;;14.50;99.90;;;14.27;100.00;98692.50;5027426;28;20994;-72
2023/09/03 04:18:36;;;;;;;3.93;3.60;;;14.50;99.90;;;14.35;100.00;98691.41;5025280;28;20458;-72
2023/09/03 04:21:05;;;;;;;5.53;4.50;;;14.50;99.90;;;14.24;100.00;98687.53;5022491;28;20518;-73
2023/09/03 04:23:32;;;;;;;5.50;4.97;;;14.50;99.90;;;14.19;100.00;98692.81;5011609;28;20453;-74
2023/09/03 04:26:00;;;;;;;7.43;4.93;;;14.50;99.90;;;14.17;100.00;98699.28;5024786;28;20468;-75
2023/09/03 04:28:27;;;;;;;5.43;4.93;;;14.50;99.90;;;14.23;100.00;98702.19;5007431;28;20465;-74
2023/09/03 04:30:56;;;;;;;6.33;5.00;;;14.50;99.90;;;14.23;100.00;98713.03;5024473;28;20442;-74
2023/09/03 04:33:24;;;;;;;5.87;4.63;;;14.50;99.90;;;14.09;100.00;98702.28;5037538;28;20823;-75
2023/09/03 04:35:56;;;;;;;4.87;4.47;;;14.50;99.90;;;14.03;100.00;98698.56;5023447;28;20526;-74
2023/09/03 04:38:25;;;;;;;8.10;4.30;;;14.50;99.90;;;13.70;100.00;98649.94;5012328;28;20485;-75
2023/09/03 04:40:52;;;;;;;4.83;4.33;;;14.40;99.90;;;14.06;100.00;98712.75;5020709;28;20448;-74
2023/09/03 04:43:20;;;;;;;5.33;4.83;;;14.40;99.90;;;14.02;100.00;98709.63;5022608;28;20464;-74
2023/09/03 04:45:48;;;;;;;4.17;3.77;;;14.40;99.90;;;14.10;100.00;98730.28;5019004;28;20871;-73
2023/09/03 04:48:16;;;;;;;4.83;4.47;;;14.30;99.90;;;13.74;100.00;98681.03;5008046;28;20520;-74
2023/09/03 04:50:43;;;;;;;5.00;4.57;;;14.20;99.90;;;13.79;100.00;98667.63;5020859;28;20466;-75
2023/09/03 04:53:13;;;;;;;5.33;4.83;;;14.30;99.90;;;14.21;100.00;98726.84;5021990;28;20549;-75
2023/09/03 04:55:42;;;;;;;7.53;5.40;;;14.40;99.90;;;14.13;100.00;98703.50;5023298;28;20472;-75
2023/09/03 04:58:10;;;;;;;5.53;4.83;;;14.40;99.90;;;14.19;100.00;98722.69;5016258;28;20930;-75
2023/09/03 05:00:37;;;;;;;16.37;5.83;;;14.40;99.90;;;14.17;100.00;98712.84;5024719;28;20585;-75
2023/09/03 05:03:07;;;;;;;5.20;4.70;;;14.40;99.90;;;14.27;100.00;98720.53;5012449;28;20513;-75
2023/09/03 05:05:41;;;;;;;5.67;4.47;;;14.40;99.90;;;14.28;100.00;98721.34;5034203;28;20454;-75
2023/09/03 05:08:09;;;;;;;5.40;4.90;;;14.50;99.90;;;14.21;100.00;98717.88;5012586;28;20457;-75
2023/09/03 05:10:36;;;;;;;6.53;4.80;;;14.50;99.90;;;14.21;100.00;98723.31;5023212;28;20502;-75
2023/09/03 05:13:05;;;;;;;4.67;4.27;;;14.60;99.90;;;13.80;100.00;98646.72;5038168;28;20471;-75
2023/09/03 05:15:32;;;;;;;4.87;4.20;;;14.60;99.90;;;14.59;100.00;98733.19;5024072;28;20922;-77
2023/09/03 05:17:59;;;;;;;8.07;4.57;;;14.70;99.90;;;14.56;100.00;98725.50;5024470;28;20458;-74
2023/09/03 05:20:27;;;;;;;5.70;4.60;;;14.80;99.90;;;14.57;100.00;98729.88;5040743;27;20462;-75
2023/09/03 05:22:54;;;;;;;5.00;4.50;;;14.80;99.90;;;14.70;100.00;98718.88;5012998;28;20463;-75
2023/09/03 05:25:21;;;;;;;4.63;4.23;;;14.90;99.90;;;14.63;100.00;98720.81;5053223;28;20478;-75
2023/09/03 05:27:48;;;;;;;5.43;4.93;;;14.90;99.90;;;14.30;100.00;98649.41;5035041;28;20693;-75
2023/09/03 05:30:17;;;;;;;5.03;4.63;;;15.00;99.90;;;14.81;100.00;98724.66;5016787;28;20859;-75
2023/09/03 05:32:45;;;;;;;5.80;4.67;;;15.10;99.90;;;14.95;100.00;98715.28;5017136;28;20465;-73
2023/09/03 05:35:12;;;;;;;5.10;4.60;;;15.20;99.90;;;15.03;100.00;98727.75;5023927;28;20965;-74
2023/09/03 05:37:40;;;;;;;6.33;5.03;;;15.20;99.90;;;14.94;100.00;98732.69;5030614;28;20910;-74
2023/09/03 05:40:10;;;;;;;6.20;4.67;;;15.20;99.90;;;15.04;100.00;98743.03;5025047;28;21058;-75
2023/09/03 05:42:37;;;;;;;4.77;4.20;;;15.30;99.90;;;14.76;100.00;98683.69;5007239;28;20462;-74
2023/09/03 05:45:06;;;;;;;6.87;4.23;;;15.30;99.90;;;15.22;99.56;98758.50;5002602;28;20453;-74
2023/09/03 05:47:35;;;;;;;5.33;4.83;;;15.40;99.90;;;15.24;99.07;98761.84;5003634;28;20490;-74
2023/09/03 05:50:02;;;;;;;4.93;4.27;;;15.50;99.40;;;15.43;97.91;98756.38;5005471;28;20532;-75
2023/09/03 05:52:29;;;;;;;7.10;5.10;;;15.60;98.70;;;15.55;96.76;98768.16;5014219;28;20834;-72
2023/09/03 05:54:57;;;;;;;6.40;4.50;;;15.70;97.80;;;15.40;96.93;98760.38;5018338;28;20459;-74
2023/09/03 05:57:24;;;;;;;4.60;4.20;;;15.70;97.20;;;15.53;97.50;98759.38;5019493;28;21027;-75
2023/09/03 05:59:52;;;;;;;5.93;4.43;;;15.70;97.70;;;15.85;94.58;98755.59;5006889;28;20807;-73
2023/09/03 06:02:19;;;;;;;4.67;4.23;;;15.90;97.10;;;15.96;94.41;98760.28;5013389;28;21276;-74
2023/09/03 06:04:51;;;;;;;7.97;4.93;;;16.00;97.00;;;16.01;93.36;98767.78;5006718;28;20462;-74
2023/09/03 06:07:18;;;;;;;5.20;4.70;;;16.10;96.10;;;16.26;91.37;98766.75;5009563;28;20532;-75
2023/09/03 06:09:46;;;;;;;5.50;4.40;;;16.30;95.40;;;16.14;92.26;98759.34;5009913;28;20971;-74
2023/09/03 06:12:13;;;;;;;6.07;4.43;;;16.40;95.00;;;16.29;91.40;98760.81;5015342;28;20459;-74
2023/09/03 06:14:41;;;;;;;4.77;4.37;;;16.50;95.00;;;16.25;91.73;98776.84;5032713;27;20456;-75
2023/09/03 06:17:10;;;;;;;7.00;4.73;;;16.50;94.50;;;16.33;90.93;98785.72;5003142;28;20456;-75
2023/09/03 06:19:37;;;;;;;5.30;4.40;;;16.50;94.40;;;16.53;90.29;98794.44;5010311;28;20483;-76
2023/09/03 06:22:06;;;;;;;4.40;4.00;;;16.70;94.30;;;16.73;88.83;98800.59;5035531;27;20462;-74
2023/09/03 06:24:33;;;;;;;4.10;3.80;;;16.90;93.70;;;16.68;88.86;98791.22;5014637;28;20462;-74
2023/09/03 06:27:01;;;;;;;7.80;4.50;;;16.90;93.60;;;17.05;87.77;98795.63;5011981;28;20461;-75
2023/09/03 06:29:28;;;;;;;4.90;4.47;;;17.10;93.60;;;16.99;87.27;98802.88;5015644;28;20969;-75
2023/09/03 06:31:55;;;;;;;5.43;4.10;;;17.20;93.10;;;17.11;86.70;98799.31;5021338;28;20525;-76
2023/09/03 06:34:23;;;;;;;4.43;4.03;;;17.30;92.90;;;17.17;87.38;98800.25;5016764;28;20552;-74
2023/09/03 06:36:50;;;;;;;5.00;4.43;;;17.30;93.00;;;17.45;85.71;98799.47;5034751;27;20491;-74
2023/09/03 06:39:18;;;;;;;6.27;4.83;;;17.40;93.00;;;17.66;83.27;98767.09;5040233;28;20453;-74
2023/09/03 06:41:46;;;;;;;4.93;4.00;;;17.70;92.50;;;18.08;81.11;98805.09;5021998;28;20458;-75
2023/09/03 06:44:15;;;;;;;5.20;4.60;;;18.00;91.90;;;17.99;80.64;98792.88;5018278;28;20455;-74
2023/09/03 06:46:42;;;;;;;6.10;4.80;;;18.10;91.50;;;18.09;80.57;98798.53;5009496;28;20454;-74
2023/09/03 06:49:09;;;;;;;7.53;4.67;;;18.20;91.40;;;18.17;80.29;98801.97;5008553;28;20457;-75
2023/09/03 06:51:36;;;;;;;8.53;4.73;;;18.20;91.30;;;18.23;79.95;98804.53;5005385;28;20452;-75
2023/09/03 06:54:04;;;;;;;4.40;4.00;;;18.30;91.10;;;18.27;80.30;98802.13;5000859;28;20502;-76
2023/09/03 06:56:32;;;;;;;8.80;4.90;;;18.40;91.20;;;18.37;79.96;98799.56;5001935;28;20526;-75
2023/09/03 06:59:00;;;;;;;4.77;4.30;;;18.40;91.20;;;18.73;79.08;98802.06;5011174;28;20469;-76
2023/09/03 07:01:27;;;;;;;6.67;5.33;;;18.60;91.20;;;18.80;77.57;98812.84;5002876;28;20505;-74
2023/09/03 07:03:54;;;;;;;11.37;5.43;;;18.80;90.90;;;18.63;77.44;98769.91;5001904;28;20609;-74
2023/09/03 07:06:21;;;;;;;6.47;4.63;;;19.00;90.80;;;19.31;76.13;98823.75;5005347;28;20450;-78
2023/09/03 07:08:49;;;;;;;6.83;5.40;;;19.20;90.70;;;19.39;75.57;98831.50;5024242;28;20467;-75
2023/09/03 07:11:16;;;;;;;6.13;5.53;;;19.30;90.50;;;19.65;75.01;98833.75;5006600;28;20458;-75
2023/09/03 07:13:44;;;;;;;5.07;4.57;;;19.60;90.40;;;19.42;75.27;98841.13;5016115;28;20473;-74
2023/09/03 07:16:11;;;;;;;5.73;5.23;;;19.70;90.10;;;19.89;73.61;98828.84;5010911;28;21028;-75
2023/09/03 07:18:45;;;;;;;7.50;5.80;;;19.80;90.00;;;20.03;71.84;98773.63;5005491;28;20464;-76
2023/09/03 07:21:12;;;;;;;6.10;5.60;;;20.20;89.70;;;20.08;72.16;98823.84;5025262;28;20798;-79
2023/09/03 07:23:39;;;;;;;5.27;4.87;;;20.30;88.80;;;19.88;72.35;98793.44;5033450;28;20451;-80
2023/09/03 07:26:09;;;;;;;5.07;4.40;;;20.20;88.80;;;20.15;71.92;98825.56;5035043;28;20463;-75
2023/09/03 07:28:38;;;;;;;5.83;5.33;;;20.30;88.80;;;20.09;72.77;98832.91;5037914;27;20557;-82
2023/09/03 07:31:06;;;;;;;5.57;5.10;;;20.30;88.90;;;20.17;72.64;98843.44;5022770;28;20459;-79
2023/09/03 07:33:33;;;;;;;6.07;4.53;;;20.30;88.90;;;20.27;71.89;98850.09;5042559;28;20474;-80
2023/09/03 07:36:01;;;;;;;5.53;5.00;;;20.30;88.80;;;20.34;71.15;98848.78;5010745;28;20470;-80
2023/09/03 07:38:28;;;;;;;6.40;5.37;;;20.40;88.30;;;20.45;70.98;98851.63;5020431;28;20523;-80
2023/09/03 07:40:55;;;;;;;5.80;5.30;;;20.50;88.50;;;20.20;72.07;98842.06;5019659;28;20516;-75
2023/09/03 07:43:23;;;;;;;5.57;5.07;;;20.40;88.30;;;20.45;71.67;98846.16;5015616;28;20938;-81
2023/09/03 07:45:50;;;;;;;5.00;4.60;;;20.60;88.40;;;20.80;69.85;98859.38;5011282;28;20456;-81
2023/09/03 07:48:18;;;;;;;6.93;5.10;;;20.80;88.00;;;20.90;68.38;98866.88;5038576;27;20447;-80
2023/09/03 07:50:45;;;;;;;5.90;5.40;;;20.90;87.20;;;21.02;69.03;98868.63;5037199;28;20459;-79
2023/09/03 07:53:13;;;;;;;5.93;5.43;;;21.10;87.30;;;20.63;70.50;98859.47;5020320;28;20519;-78
2023/09/03 07:55:40;;;;;;;9.17;4.90;;;21.00;87.50;;;20.13;72.31;98880.66;5013869;28;20444;-82
2023/09/03 07:58:07;;;;;;;6.00;5.20;;;20.60;87.50;;;20.23;72.36;98894.50;5043411;28;20466;-79
2023/09/03 08:00:34;;;;;;;6.47;5.53;;;20.50;88.00;;;20.14;72.86;98885.06;5013506;28;20463;-74
2023/09/03 08:03:01;;;;;;;6.43;5.80;;;20.30;88.10;;;19.90;74.43;98907.25;5042735;28;20455;-77
2023/09/03 08:05:30;;;;;;;6.70;6.10;;;20.10;88.70;;;19.81;75.30;98906.88;5031878;28;20452;-78
2023/09/03 08:07:57;;;;;;;6.10;5.63;;;20.10;89.10;;;19.79;74.57;98906.31;5058141;28;20466;-77
2023/09/03 08:10:24;;;;;;;8.43;6.17;;;20.00;88.80;;;19.65;74.61;98902.28;5040174;28;20457;-77
2023/09/03 08:12:51;;;;;;;5.80;5.33;;;20.00;88.70;;;19.86;74.89;98921.72;5018827;28;20451;-80
2023/09/03 08:15:19;;;;;;;8.93;5.90;;;20.00;89.10;;;20.05;74.57;98928.56;5016697;28;20475;-74
2023/09/03 08:17:46;;;;;;;5.87;5.30;;;20.10;89.30;;;20.16;73.85;98931.44;5046898;27;20455;-73
2023/09/03 08:20:13;;;;;;;7.03;5.57;;;20.20;89.00;;;20.38;72.81;98932.25;5012929;28;20479;-78
2023/09/03 08:22:42;;;;;;;6.00;5.50;;;20.40;88.80;;;20.64;71.88;98934.44;5009721;28;20499;-83
2023/09/03 08:25:10;;;;;;;6.33;5.20;;;20.70;88.50;;;20.69;71.74;98939.13;5057122;27;20459;-79
2023/09/03 08:27:38;;;;;;;7.07;5.77;;;20.70;88.30;;;20.87;71.54;98930.56;5029604;28;20992;-82
2023/09/03 08:30:07;;;;;;;5.90;5.40;;;20.80;88.40;;;20.95;69.92;98932.00;5060467;27;20445;-80
2023/09/03 08:32:35;;;;;;;5.50;5.00;;;21.00;87.80;;;20.95;69.88;98937.50;5007531;28;20449;-80
2023/09/03 08:35:03;;;;;;;5.53;5.00;;;21.10;87.50;;;21.04;69.96;98924.13;5033579;28;20587;-81
2023/09/03 08:37:30;;;;;;;5.80;5.30;;;21.10;87.60;;;21.36;68.55;98918.56;5028058;28;20445;-80
2023/09/03 08:39:59;;;;;;;5.77;4.70;;;21.40;87.20;;;21.32;68.07;98919.38;5019206;28;20459;-77
2023/09/03 08:42:27;;;;;;;4.57;3.60;;;21.50;86.50;;;21.27;67.64;98919.31;5003401;28;20469;-81
2023/09/03 08:45:01;;;;;;;4.10;3.60;;;21.50;86.30;;;21.45;67.64;98927.13;5048000;27;20532;-79
2023/09/03 08:47:29;;;;;;;4.87;4.47;;;21.40;86.40;;;21.69;66.46;98921.25;5027023;28;20462;-80
2023/09/03 08:49:59;;;;;;;4.40;4.00;;;21.70;86.00;;;21.88;66.79;98915.28;5040470;28;20913;-79
2023/09/03 08:52:28;;;;;;;3.80;3.50;;;21.90;86.30;;;22.02;65.03;98910.94;5066256;28;20446;-81
2023/09/03 08:54:58;;;;;;;3.80;3.60;;;22.10;85.30;;;21.83;65.54;98918.03;5040536;27;20481;-79
2023/09/03 08:57:29;;;;;;;3.93;3.63;;;22.10;84.90;;;21.56;66.21;98925.28;5018297;28;20461;-81
2023/09/03 08:59:57;;;;;;;3.90;3.60;;;21.90;84.90;;;21.84;65.76;98930.69;5054172;28;20455;-81
2023/09/03 09:02:26;;;;;;;4.07;3.77;;;22.00;85.00;;;21.99;65.78;98930.75;5022285;28;22654;-79
2023/09/03 09:04:53;;;;;;;3.87;3.60;;;22.10;85.20;;;22.10;65.37;98917.03;5043655;27;20812;-80
2023/09/03 09:07:21;;;;;;;3.60;3.40;;;22.10;85.10;;;21.90;65.18;98913.09;5046523;28;20545;-78
2023/09/03 09:09:49;;;;;;;3.93;3.63;;;22.20;84.80;;;21.83;65.82;98923.53;5058381;28;20456;-81
2023/09/03 09:12:28;;;;;;;4.33;3.93;;;21.90;84.80;;;21.93;65.08;98918.91;5053880;27;20795;-82
2023/09/03 09:15:01;;;;;;;4.40;3.60;;;22.10;84.60;;;21.95;65.09;98929.66;5025586;27;20491;-82
2023/09/03 09:17:29;;;;;;;3.63;3.30;;;22.10;84.60;;;22.06;64.58;98917.59;5029660;28;20452;-79
2023/09/03 09:19:59;;;;;;;3.80;3.57;;;22.20;84.30;;;22.22;63.90;98909.38;5018019;28;20999;-82
2023/09/03 09:22:26;;;;;;;3.90;3.60;;;22.30;84.10;;;22.21;64.29;98911.28;5009502;28;20604;-79
2023/09/03 09:24:54;;;;;;;3.80;3.50;;;22.30;84.10;;;22.38;63.05;98901.97;5013059;28;20452;-81
2023/09/03 09:27:22;;;;;;;3.60;3.30;;;22.50;83.60;;;22.32;63.18;98881.88;5015872;28;20452;-81
2023/09/03 09:29:50;;;;;;;3.30;3.10;;;22.50;83.60;;;22.16;64.02;98904.94;5021364;28;20483;-80
2023/09/03 09:32:22;;;;;;;3.83;3.43;;;22.30;83.40;;;22.40;63.29;98893.47;5038888;28;20510;-80
2023/09/03 09:34:50;;;;;;;3.50;3.30;;;22.50;83.60;;;22.32;63.38;98890.13;5013063;28;20497;-80
2023/09/03 09:37:18;;;;;;;4.07;3.77;;;22.50;83.50;;;22.36;63.30;98899.50;5007688;28;20486;-78
2023/09/03 09:39:46;;;;;;;3.90;3.60;;;22.50;83.20;;;22.21;63.52;98896.69;5017073;28;20456;-81
2023/09/03 09:42:18;;;;;;;3.47;3.17;;;22.40;83.10;;;22.54;62.86;98900.13;5014717;28;20470;-81
2023/09/03 09:44:59;;;;;;;3.20;2.90;;;22.50;83.20;;;22.13;63.27;98840.28;5034929;27;20823;-83
2023/09/03 09:47:27;;;;;;;4.70;3.40;;;22.60;83.20;;;22.64;62.61;98893.81;5039839;27;20466;-83
2023/09/03 09:49:55;;;;;;;3.63;3.30;;;22.70;83.00;;;22.78;62.48;98894.06;5008685;28;20461;-84
2023/09/03 09:52:22;;;;;;;3.23;3.03;;;22.90;83.00;;;22.70;62.08;98895.44;5012135;28;20466;-82
2023/09/03 09:54:50;;;;;;;4.10;3.40;;;22.80;82.60;;;22.80;62.60;98902.88;5016320;28;20501;-82
2023/09/03 09:57:19;;;;;;;3.20;3.00;;;22.90;83.10;;;22.99;62.13;98902.34;5018998;28;20530;-82
2023/09/03 09:59:56;;;;;;;3.67;3.37;;;23.20;82.90;;;23.29;61.00;98903.47;5018131;28;21002;-81
2023/09/03 10:02:25;;;;;;;4.37;4.07;;;23.30;82.30;;;23.46;60.43;98908.66;5017024;28;20975;-80
2023/09/03 10:04:54;;;;;;;3.97;3.67;;;23.50;82.00;;;23.52;60.87;98906.72;5016901;28;20469;-82
2023/09/03 10:07:22;;;;;;;3.40;3.20;;;23.40;82.30;;;23.53;61.06;98898.16;5011842;28;20512;-82
2023/09/03 10:09:50;;;;;;;3.73;2.97;;;23.50;82.40;;;23.77;59.85;98901.13;5018292;28;20483;-81
2023/09/03 10:12:17;;;;;;;3.40;3.10;;;23.90;81.60;;;23.99;59.16;98910.16;5013642;28;20930;-76
2023/09/03 10:14:44;;;;;;;3.53;3.17;;;24.00;81.40;;;24.05;58.58;98909.88;5036462;28;20465;-78
2023/09/03 10:17:12;;;;;;;3.60;3.37;;;24.10;80.70;;;23.75;58.66;98916.28;5013763;28;20510;-75
2023/09/03 10:19:50;;;;;;;3.77;3.40;;;23.90;80.50;;;23.92;59.40;98916.78;5031979;27;20945;-76
2023/09/03 10:22:19;;;;;;;3.00;2.80;;;23.80;81.00;;;23.88;58.35;98928.66;5012327;28;20461;-78